sensor_id;sensor_type;location;lat;lon;timestamp;pressure;altitude;pressure_sealevel;temperature;humidity
49030;BME280;43337;52.070;4.508;2023-11-19T00:00:56;100895.72;;;12.70;100.00
49030;BME280;43337;52.070;4.508;2023-11-19T00:03:21;100916.88;;;12.88;100.00
49030;BME280;43337;52.070;4.508;2023-11-19T00:05:47;100918.59;;;12.89;100.00
49030;BME280;43337;52.070;4.508;2023-11-19T00:08:13;100935.16;;;12.92;100.00
49030;BME280;43337;52.070;4.508;2023-11-19T00:10:38;100912.00;;;12.80;100.00
49030;BME280;43337;52.070;4.508;2023-11-19T00:13:04;100958.13;;;12.90;100.00
49030;BME280;43337;52.070;4.508;2023-11-19T00:15:33;100959.94;;;12.90;100.00
49030;BME280;43337;52.070;4.508;2023-11-19T00:17:58;100930.63;;;12.77;100.00
49030;BME280;43337;52.070;4.508;2023-11-19T00:20:23;100923.66;;;12.76;100.00
49030;BME280;43337;52.070;4.508;2023-11-19T00:22:49;100912.38;;;12.73;100.00
49030;BME280;43337;52.070;4.508;2023-11-19T00:25:18;100941.56;;;12.87;100.00
49030;BME280;43337;52.070;4.508;2023-11-19T00:27:46;100911.34;;;12.75;100.00
49030;BME280;43337;52.070;4.508;2023-11-19T00:30:12;100905.31;;;12.73;100.00
49030;BME280;43337;52.070;4.508;2023-11-19T00:32:39;100925.19;;;12.80;100.00
49030;BME280;43337;52.070;4.508;2023-11-19T00:35:05;100887.56;;;12.58;100.00
49030;BME280;43337;52.070;4.508;2023-11-19T00:37:34;100895.19;;;12.64;100.00
49030;BME280;43337;52.070;4.508;2023-11-19T00:40:02;100933.03;;;12.82;100.00
49030;BME280;43337;52.070;4.508;2023-11-19T00:42:31;100946.34;;;12.80;100.00
49030;BME280;43337;52.070;4.508;2023-11-19T00:44:56;100911.81;;;12.66;100.00
49030;BME280;43337;52.070;4.508;2023-11-19T00:47:23;100880.81;;;12.52;100.00
49030;BME280;43337;52.070;4.508;2023-11-19T00:49:48;100884.25;;;12.54;100.00
49030;BME280;43337;52.070;4.508;2023-11-19T00:52:14;100890.50;;;12.52;100.00
49030;BME280;43337;52.070;4.508;2023-11-19T00:54:40;100910.03;;;12.66;100.00
49030;BME280;43337;52.070;4.508;2023-11-19T00:57:07;100918.41;;;12.75;100.00
49030;BME280;43337;52.070;4.508;2023-11-19T00:59:33;100913.28;;;12.71;100.00
49030;BME280;43337;52.070;4.508;2023-11-19T01:01:59;100904.50;;;12.71;100.00
49030;BME280;43337;52.070;4.508;2023-11-19T01:04:33;100887.63;;;12.56;100.00
49030;BME280;43337;52.070;4.508;2023-11-19T01:07:02;100891.13;;;12.57;100.00
49030;BME280;43337;52.070;4.508;2023-11-19T01:09:29;100899.38;;;12.68;100.00
49030;BME280;43337;52.070;4.508;2023-11-19T01:12:01;100898.66;;;12.64;100.00
49030;BME280;43337;52.070;4.508;2023-11-19T01:14:29;100898.00;;;12.61;100.00
49030;BME280;43337;52.070;4.508;2023-11-19T01:16:54;100908.56;;;12.61;100.00
49030;BME280;43337;52.070;4.508;2023-11-19T01:19:22;100881.34;;;12.41;100.00
49030;BME280;43337;52.070;4.508;2023-11-19T01:21:54;100882.97;;;12.44;100.00
49030;BME280;43337;52.070;4.508;2023-11-19T01:24:20;100906.31;;;12.53;100.00
49030;BME280;43337;52.070;4.508;2023-11-19T01:26:45;100880.94;;;12.32;100.00
49030;BME280;43337;52.070;4.508;2023-11-19T01:29:15;100861.03;;;12.25;100.00
49030;BME280;43337;52.070;4.508;2023-11-19T01:31:43;100880.16;;;12.30;100.00
49030;BME280;43337;52.070;4.508;2023-11-19T01:34:11;100897.00;;;12.27;100.00
49030;BME280;43337;52.070;4.508;2023-11-19T01:36:37;100889.31;;;12.23;100.00
49030;BME280;43337;52.070;4.508;2023-11-19T01:39:02;100911.81;;;12.30;100.00
49030;BME280;43337;52.070;4.508;2023-11-19T01:41:33;100885.41;;;12.12;100.00
49030;BME280;43337;52.070;4.508;2023-11-19T01:43:59;100882.06;;;12.09;100.00
49030;BME280;43337;52.070;4.508;2023-11-19T01:46:27;100913.13;;;12.21;100.00
49030;BME280;43337;52.070;4.508;2023-11-19T01:48:53;100892.09;;;12.19;100.00
49030;BME280;43337;52.070;4.508;2023-11-19T01:51:22;100864.03;;;12.00;100.00
49030;BME280;43337;52.070;4.508;2023-11-19T01:53:49;100886.53;;;12.07;100.00
49030;BME280;43337;52.070;4.508;2023-11-19T01:56:15;100899.44;;;12.13;100.00
49030;BME280;43337;52.070;4.508;2023-11-19T01:58:43;100856.63;;;11.89;100.00
49030;BME280;43337;52.070;4.508;2023-11-19T02:01:10;100872.16;;;11.95;100.00
49030;BME280;43337;52.070;4.508;2023-11-19T02:03:40;100854.31;;;11.81;100.00
49030;BME280;43337;52.070;4.508;2023-11-19T02:06:10;100875.47;;;11.80;100.00
49030;BME280;43337;52.070;4.508;2023-11-19T02:08:36;100875.66;;;11.77;100.00
49030;BME280;43337;52.070;4.508;2023-11-19T02:11:08;100930.91;;;11.98;100.00
49030;BME280;43337;52.070;4.508;2023-11-19T02:13:33;100902.75;;;11.80;100.00
49030;BME280;43337;52.070;4.508;2023-11-19T02:16:06;100878.41;;;11.73;100.00
49030;BME280;43337;52.070;4.508;2023-11-19T02:18:35;100890.41;;;11.81;100.00
49030;BME280;43337;52.070;4.508;2023-11-19T02:21:05;100917.09;;;11.93;100.00
49030;BME280;43337;52.070;4.508;2023-11-19T02:23:31;100892.38;;;11.76;100.00
49030;BME280;43337;52.070;4.508;2023-11-19T02:26:00;100901.38;;;11.90;100.00
49030;BME280;43337;52.070;4.508;2023-11-19T02:28:28;100864.97;;;11.61;100.00
49030;BME280;43337;52.070;4.508;2023-11-19T02:30:54;100900.28;;;11.76;100.00
49030;BME280;43337;52.070;4.508;2023-11-19T02:33:19;100867.78;;;11.56;100.00
49030;BME280;43337;52.070;4.508;2023-11-19T02:35:48;100910.56;;;11.82;100.00
49030;BME280;43337;52.070;4.508;2023-11-19T02:38:18;100899.16;;;11.81;100.00
49030;BME280;43337;52.070;4.508;2023-11-19T02:43:21;100889.72;;;11.76;100.00
49030;BME280;43337;52.070;4.508;2023-11-19T02:45:46;100894.25;;;11.73;100.00
49030;BME280;43337;52.070;4.508;2023-11-19T02:48:13;100893.44;;;11.71;100.00
49030;BME280;43337;52.070;4.508;2023-11-19T02:50:44;100858.44;;;11.49;100.00
49030;BME280;43337;52.070;4.508;2023-11-19T02:53:09;100851.81;;;11.40;100.00
49030;BME280;43337;52.070;4.508;2023-11-19T02:55:34;100871.63;;;11.49;100.00
49030;BME280;43337;52.070;4.508;2023-11-19T02:58:04;100869.34;;;11.41;100.00
49030;BME280;43337;52.070;4.508;2023-11-19T03:00:35;100876.25;;;11.44;100.00
49030;BME280;43337;52.070;4.508;2023-11-19T03:03:09;100871.13;;;11.41;100.00
49030;BME280;43337;52.070;4.508;2023-11-19T03:05:44;100872.91;;;11.40;100.00
49030;BME280;43337;52.070;4.508;2023-11-19T03:08:10;100863.28;;;11.39;100.00
49030;BME280;43337;52.070;4.508;2023-11-19T03:10:41;100884.44;;;11.57;100.00
49030;BME280;43337;52.070;4.508;2023-11-19T03:13:11;100865.94;;;11.39;100.00
49030;BME280;43337;52.070;4.508;2023-11-19T03:15:42;100883.94;;;11.48;100.00
49030;BME280;43337;52.070;4.508;2023-11-19T03:18:08;100888.38;;;11.48;100.00
49030;BME280;43337;52.070;4.508;2023-11-19T03:20:33;100885.53;;;11.53;100.00
49030;BME280;43337;52.070;4.508;2023-11-19T03:22:59;100844.03;;;11.37;100.00
49030;BME280;43337;52.070;4.508;2023-11-19T03:25:25;100863.88;;;11.46;100.00
49030;BME280;43337;52.070;4.508;2023-11-19T03:27:52;100843.13;;;11.38;100.00
49030;BME280;43337;52.070;4.508;2023-11-19T03:30:18;100838.03;;;11.34;100.00
49030;BME280;43337;52.070;4.508;2023-11-19T03:35:09;100840.59;;;11.16;100.00
49030;BME280;43337;52.070;4.508;2023-11-19T03:37:37;100849.50;;;11.14;100.00
49030;BME280;43337;52.070;4.508;2023-11-19T03:40:02;100852.09;;;11.15;100.00
49030;BME280;43337;52.070;4.508;2023-11-19T03:42:28;100893.00;;;11.43;100.00
49030;BME280;43337;52.070;4.508;2023-11-19T03:44:55;100896.56;;;11.42;100.00
49030;BME280;43337;52.070;4.508;2023-11-19T03:47:21;100885.09;;;11.43;100.00
49030;BME280;43337;52.070;4.508;2023-11-19T03:49:50;100867.47;;;11.24;100.00
49030;BME280;43337;52.070;4.508;2023-11-19T03:52:17;100881.75;;;11.39;100.00
49030;BME280;43337;52.070;4.508;2023-11-19T03:54:43;100876.81;;;11.32;100.00
49030;BME280;43337;52.070;4.508;2023-11-19T03:57:08;100891.47;;;11.37;100.00
49030;BME280;43337;52.070;4.508;2023-11-19T03:59:37;100871.25;;;11.19;100.00
49030;BME280;43337;52.070;4.508;2023-11-19T04:02:02;100871.16;;;11.20;100.00
49030;BME280;43337;52.070;4.508;2023-11-19T04:04:28;100903.09;;;11.33;100.00
49030;BME280;43337;52.070;4.508;2023-11-19T04:06:59;100904.16;;;11.29;100.00
49030;BME280;43337;52.070;4.508;2023-11-19T04:09:26;100887.09;;;11.17;100.00
49030;BME280;43337;52.070;4.508;2023-11-19T04:11:51;100885.53;;;11.13;100.00
49030;BME280;43337;52.070;4.508;2023-11-19T04:14:16;100909.38;;;11.31;100.00
49030;BME280;43337;52.070;4.508;2023-11-19T04:16:46;100895.53;;;11.25;100.00
49030;BME280;43337;52.070;4.508;2023-11-19T04:19:13;100888.28;;;11.31;100.00
49030;BME280;43337;52.070;4.508;2023-11-19T04:21:42;100889.34;;;11.27;100.00
49030;BME280;43337;52.070;4.508;2023-11-19T04:24:10;100872.50;;;11.10;100.00
49030;BME280;43337;52.070;4.508;2023-11-19T04:26:43;100863.00;;;11.06;100.00
49030;BME280;43337;52.070;4.508;2023-11-19T04:29:12;100900.75;;;11.27;100.00
49030;BME280;43337;52.070;4.508;2023-11-19T04:31:38;100902.47;;;11.28;100.00
49030;BME280;43337;52.070;4.508;2023-11-19T04:34:05;100905.91;;;11.30;100.00
49030;BME280;43337;52.070;4.508;2023-11-19T04:36:33;100904.97;;;11.31;100.00
49030;BME280;43337;52.070;4.508;2023-11-19T04:38:59;100898.84;;;11.31;100.00
49030;BME280;43337;52.070;4.508;2023-11-19T04:41:25;100861.03;;;11.11;100.00
49030;BME280;43337;52.070;4.508;2023-11-19T04:43:53;100883.91;;;11.30;100.00
49030;BME280;43337;52.070;4.508;2023-11-19T04:46:19;100851.41;;;11.10;100.00
49030;BME280;43337;52.070;4.508;2023-11-19T04:48:45;100889.19;;;11.30;100.00
49030;BME280;43337;52.070;4.508;2023-11-19T04:51:10;100897.31;;;11.25;100.00
49030;BME280;43337;52.070;4.508;2023-11-19T04:53:36;100863.22;;;11.02;100.00
49030;BME280;43337;52.070;4.508;2023-11-19T04:56:07;100900.78;;;11.25;100.00
49030;BME280;43337;52.070;4.508;2023-11-19T04:58:36;100876.19;;;11.06;100.00
49030;BME280;43337;52.070;4.508;2023-11-19T05:01:03;100886.69;;;11.08;100.00
49030;BME280;43337;52.070;4.508;2023-11-19T05:03:29;100866.69;;;11.02;100.00
49030;BME280;43337;52.070;4.508;2023-11-19T05:05:54;100877.63;;;11.13;100.00
49030;BME280;43337;52.070;4.508;2023-11-19T05:08:19;100886.53;;;11.11;100.00
49030;BME280;43337;52.070;4.508;2023-11-19T05:10:45;100843.41;;;10.93;100.00
49030;BME280;43337;52.070;4.508;2023-11-19T05:13:10;100892.38;;;11.17;100.00
49030;BME280;43337;52.070;4.508;2023-11-19T05:15:37;100905.28;;;11.23;100.00
49030;BME280;43337;52.070;4.508;2023-11-19T05:18:03;100908.88;;;11.22;100.00
49030;BME280;43337;52.070;4.508;2023-11-19T05:20:29;100892.47;;;11.16;100.00
49030;BME280;43337;52.070;4.508;2023-11-19T05:22:55;100892.72;;;11.10;100.00
49030;BME280;43337;52.070;4.508;2023-11-19T05:25:20;100902.16;;;11.15;100.00
49030;BME280;43337;52.070;4.508;2023-11-19T05:27:46;100898.84;;;11.10;100.00
49030;BME280;43337;52.070;4.508;2023-11-19T05:30:13;100907.53;;;11.12;100.00
49030;BME280;43337;52.070;4.508;2023-11-19T05:32:39;100886.06;;;11.01;100.00
49030;BME280;43337;52.070;4.508;2023-11-19T05:35:04;100875.41;;;11.04;100.00
49030;BME280;43337;52.070;4.508;2023-11-19T05:37:30;100891.09;;;11.07;100.00
49030;BME280;43337;52.070;4.508;2023-11-19T05:39:56;100899.72;;;11.11;100.00
49030;BME280;43337;52.070;4.508;2023-11-19T05:42:21;100925.66;;;11.20;100.00
49030;BME280;43337;52.070;4.508;2023-11-19T05:44:46;100893.13;;;11.00;100.00
49030;BME280;43337;52.070;4.508;2023-11-19T05:47:12;100918.84;;;11.14;100.00
49030;BME280;43337;52.070;4.508;2023-11-19T05:49:40;100900.41;;;11.14;100.00
49030;BME280;43337;52.070;4.508;2023-11-19T05:52:06;100911.88;;;11.13;100.00
49030;BME280;43337;52.070;4.508;2023-11-19T05:54:32;100880.16;;;10.96;100.00
49030;BME280;43337;52.070;4.508;2023-11-19T05:57:05;100901.56;;;11.09;100.00
49030;BME280;43337;52.070;4.508;2023-11-19T05:59:35;100893.34;;;10.96;100.00
49030;BME280;43337;52.070;4.508;2023-11-19T06:02:01;100874.03;;;10.95;100.00
49030;BME280;43337;52.070;4.508;2023-11-19T06:04:27;100886.94;;;11.02;100.00
49030;BME280;43337;52.070;4.508;2023-11-19T06:06:53;100883.97;;;10.89;100.00
49030;BME280;43337;52.070;4.508;2023-11-19T06:09:20;100905.16;;;11.06;100.00
49030;BME280;43337;52.070;4.508;2023-11-19T06:11:46;100872.50;;;10.90;100.00
49030;BME280;43337;52.070;4.508;2023-11-19T06:14:12;100883.69;;;10.95;100.00
49030;BME280;43337;52.070;4.508;2023-11-19T06:16:38;100898.19;;;11.05;100.00
49030;BME280;43337;52.070;4.508;2023-11-19T06:19:05;100876.06;;;10.89;100.00
49030;BME280;43337;52.070;4.508;2023-11-19T06:21:32;100868.31;;;10.86;100.00
49030;BME280;43337;52.070;4.508;2023-11-19T06:23:58;100882.31;;;10.86;100.00
49030;BME280;43337;52.070;4.508;2023-11-19T06:26:25;100887.53;;;10.88;100.00
49030;BME280;43337;52.070;4.508;2023-11-19T06:28:50;100920.41;;;10.99;100.00
49030;BME280;43337;52.070;4.508;2023-11-19T06:31:15;100904.59;;;10.99;100.00
49030;BME280;43337;52.070;4.508;2023-11-19T06:33:41;100925.50;;;11.03;100.00
49030;BME280;43337;52.070;4.508;2023-11-19T06:36:08;100928.88;;;11.06;100.00
49030;BME280;43337;52.070;4.508;2023-11-19T06:38:34;100904.94;;;10.92;100.00
49030;BME280;43337;52.070;4.508;2023-11-19T06:40:59;100873.03;;;10.78;100.00
49030;BME280;43337;52.070;4.508;2023-11-19T06:43:25;100929.47;;;11.13;100.00
49030;BME280;43337;52.070;4.508;2023-11-19T06:45:51;100934.03;;;11.09;100.00
49030;BME280;43337;52.070;4.508;2023-11-19T06:48:18;100946.75;;;11.20;100.00
49030;BME280;43337;52.070;4.508;2023-11-19T06:50:43;100907.81;;;11.06;100.00
49030;BME280;43337;52.070;4.508;2023-11-19T06:53:09;100936.25;;;11.18;100.00
49030;BME280;43337;52.070;4.508;2023-11-19T06:55:35;100932.50;;;11.24;100.00
49030;BME280;43337;52.070;4.508;2023-11-19T06:58:02;100948.84;;;11.32;100.00
49030;BME280;43337;52.070;4.508;2023-11-19T07:00:28;100943.47;;;11.34;100.00
49030;BME280;43337;52.070;4.508;2023-11-19T07:02:54;100944.28;;;11.36;100.00
49030;BME280;43337;52.070;4.508;2023-11-19T07:05:20;100936.50;;;11.33;100.00
49030;BME280;43337;52.070;4.508;2023-11-19T07:07:46;100910.81;;;11.17;100.00
49030;BME280;43337;52.070;4.508;2023-11-19T07:10:12;100890.28;;;11.05;100.00
49030;BME280;43337;52.070;4.508;2023-11-19T07:12:38;100924.69;;;11.22;100.00
49030;BME280;43337;52.070;4.508;2023-11-19T07:15:04;100939.53;;;11.44;100.00
49030;BME280;43337;52.070;4.508;2023-11-19T07:17:31;100944.81;;;11.44;100.00
49030;BME280;43337;52.070;4.508;2023-11-19T07:19:56;100942.59;;;11.35;100.00
49030;BME280;43337;52.070;4.508;2023-11-19T07:22:24;100943.31;;;11.38;100.00
49030;BME280;43337;52.070;4.508;2023-11-19T07:24:50;100923.13;;;11.37;100.00
49030;BME280;43337;52.070;4.508;2023-11-19T07:27:17;100906.06;;;11.25;100.00
49030;BME280;43337;52.070;4.508;2023-11-19T07:29:43;100919.06;;;11.30;100.00
49030;BME280;43337;52.070;4.508;2023-11-19T07:32:09;100902.72;;;11.22;100.00
49030;BME280;43337;52.070;4.508;2023-11-19T07:34:36;100921.84;;;11.27;100.00
49030;BME280;43337;52.070;4.508;2023-11-19T07:37:02;100917.41;;;11.28;100.00
49030;BME280;43337;52.070;4.508;2023-11-19T07:39:28;100928.56;;;11.34;100.00
49030;BME280;43337;52.070;4.508;2023-11-19T07:41:54;100933.94;;;11.31;100.00
49030;BME280;43337;52.070;4.508;2023-11-19T07:44:20;100939.81;;;11.38;100.00
49030;BME280;43337;52.070;4.508;2023-11-19T07:46:46;100898.72;;;11.13;100.00
49030;BME280;43337;52.070;4.508;2023-11-19T07:49:13;100935.31;;;11.40;100.00
49030;BME280;43337;52.070;4.508;2023-11-19T07:51:39;100890.81;;;11.13;100.00
49030;BME280;43337;52.070;4.508;2023-11-19T07:54:04;100937.03;;;11.41;100.00
49030;BME280;43337;52.070;4.508;2023-11-19T07:56:30;100896.66;;;11.20;100.00
49030;BME280;43337;52.070;4.508;2023-11-19T07:58:58;100916.47;;;11.29;100.00
49030;BME280;43337;52.070;4.508;2023-11-19T08:01:24;100912.91;;;11.30;100.00
49030;BME280;43337;52.070;4.508;2023-11-19T08:03:50;100934.22;;;11.45;100.00
49030;BME280;43337;52.070;4.508;2023-11-19T08:06:15;100892.50;;;11.14;100.00
49030;BME280;43337;52.070;4.508;2023-11-19T08:08:41;100930.25;;;11.35;100.00
49030;BME280;43337;52.070;4.508;2023-11-19T08:11:06;100928.41;;;11.37;100.00
49030;BME280;43337;52.070;4.508;2023-11-19T08:13:32;100953.31;;;11.51;100.00
49030;BME280;43337;52.070;4.508;2023-11-19T08:15:58;100925.72;;;11.39;100.00
49030;BME280;43337;52.070;4.508;2023-11-19T08:18:25;100950.47;;;11.55;100.00
49030;BME280;43337;52.070;4.508;2023-11-19T08:20:50;100928.13;;;11.43;100.00
49030;BME280;43337;52.070;4.508;2023-11-19T08:23:21;100915.81;;;11.44;100.00
49030;BME280;43337;52.070;4.508;2023-11-19T08:25:48;100941.56;;;11.58;100.00
49030;BME280;43337;52.070;4.508;2023-11-19T08:28:15;100956.09;;;11.66;100.00
49030;BME280;43337;52.070;4.508;2023-11-19T08:30:41;100894.84;;;11.41;100.00
49030;BME280;43337;52.070;4.508;2023-11-19T08:33:07;100902.16;;;11.55;100.00
49030;BME280;43337;52.070;4.508;2023-11-19T08:35:32;100878.69;;;11.48;100.00
49030;BME280;43337;52.070;4.508;2023-11-19T08:38:01;100921.38;;;11.76;100.00
49030;BME280;43337;52.070;4.508;2023-11-19T08:40:27;100903.81;;;11.76;100.00
49030;BME280;43337;52.070;4.508;2023-11-19T08:42:53;100897.88;;;11.71;100.00
49030;BME280;43337;52.070;4.508;2023-11-19T08:45:18;100940.69;;;11.96;100.00
49030;BME280;43337;52.070;4.508;2023-11-19T08:47:44;100943.91;;;12.03;100.00
49030;BME280;43337;52.070;4.508;2023-11-19T08:50:10;100879.13;;;11.77;100.00
49030;BME280;43337;52.070;4.508;2023-11-19T08:52:36;100921.38;;;11.96;100.00
49030;BME280;43337;52.070;4.508;2023-11-19T08:55:01;100913.38;;;11.97;100.00
49030;BME280;43337;52.070;4.508;2023-11-19T08:57:28;100909.03;;;11.96;100.00
49030;BME280;43337;52.070;4.508;2023-11-19T08:59:53;100912.38;;;12.00;100.00
49030;BME280;43337;52.070;4.508;2023-11-19T09:02:18;100897.69;;;11.94;100.00
49030;BME280;43337;52.070;4.508;2023-11-19T09:04:44;100915.94;;;11.99;100.00
49030;BME280;43337;52.070;4.508;2023-11-19T09:07:12;100904.97;;;11.89;100.00
49030;BME280;43337;52.070;4.508;2023-11-19T09:09:43;100935.47;;;12.14;100.00
49030;BME280;43337;52.070;4.508;2023-11-19T09:12:08;100929.06;;;12.19;100.00
49030;BME280;43337;52.070;4.508;2023-11-19T09:14:34;100925.63;;;12.17;100.00
49030;BME280;43337;52.070;4.508;2023-11-19T09:16:59;100943.31;;;12.34;100.00
49030;BME280;43337;52.070;4.508;2023-11-19T09:19:26;100927.75;;;12.28;100.00
49030;BME280;43337;52.070;4.508;2023-11-19T09:21:55;100947.75;;;12.34;100.00
49030;BME280;43337;52.070;4.508;2023-11-19T09:24:26;100947.50;;;12.38;100.00
49030;BME280;43337;52.070;4.508;2023-11-19T09:26:53;100900.78;;;12.21;100.00
49030;BME280;43337;52.070;4.508;2023-11-19T09:29:23;100908.41;;;12.28;100.00
49030;BME280;43337;52.070;4.508;2023-11-19T09:31:49;100950.69;;;12.45;100.00
49030;BME280;43337;52.070;4.508;2023-11-19T09:34:14;100936.41;;;12.49;100.00
49030;BME280;43337;52.070;4.508;2023-11-19T09:36:40;100884.09;;;12.21;100.00
49030;BME280;43337;52.070;4.508;2023-11-19T09:39:10;100902.47;;;12.41;100.00
49030;BME280;43337;52.070;4.508;2023-11-19T09:41:35;100915.69;;;12.59;100.00
49030;BME280;43337;52.070;4.508;2023-11-19T09:44:04;100893.31;;;12.49;100.00
49030;BME280;43337;52.070;4.508;2023-11-19T09:46:30;100915.47;;;12.63;100.00
49030;BME280;43337;52.070;4.508;2023-11-19T09:48:55;100919.22;;;12.77;100.00
49030;BME280;43337;52.070;4.508;2023-11-19T09:51:23;100919.03;;;12.62;100.00
49030;BME280;43337;52.070;4.508;2023-11-19T09:53:48;100918.34;;;12.59;100.00
49030;BME280;43337;52.070;4.508;2023-11-19T09:56:15;100910.69;;;12.53;100.00
49030;BME280;43337;52.070;4.508;2023-11-19T09:58:55;100941.44;;;12.73;100.00
49030;BME280;43337;52.070;4.508;2023-11-19T10:01:20;100918.25;;;12.60;100.00
49030;BME280;43337;52.070;4.508;2023-11-19T10:03:47;100929.38;;;12.67;100.00
49030;BME280;43337;52.070;4.508;2023-11-19T10:06:15;100937.91;;;12.72;100.00
49030;BME280;43337;52.070;4.508;2023-11-19T10:08:42;100938.00;;;12.70;100.00
49030;BME280;43337;52.070;4.508;2023-11-19T10:11:08;100929.38;;;12.67;100.00
49030;BME280;43337;52.070;4.508;2023-11-19T10:13:55;100930.22;;;12.67;100.00
49030;BME280;43337;52.070;4.508;2023-11-19T10:16:29;100924.47;;;12.59;100.00
49030;BME280;43337;52.070;4.508;2023-11-19T10:19:02;100918.19;;;12.62;100.00
49030;BME280;43337;52.070;4.508;2023-11-19T10:21:32;100906.44;;;12.67;100.00
49030;BME280;43337;52.070;4.508;2023-11-19T10:23:59;100885.00;;;12.56;100.00
49030;BME280;43337;52.070;4.508;2023-11-19T10:26:26;100875.97;;;12.60;100.00
49030;BME280;43337;52.070;4.508;2023-11-19T10:28:56;100890.84;;;12.63;100.00
49030;BME280;43337;52.070;4.508;2023-11-19T10:31:23;100915.47;;;12.98;100.00
49030;BME280;43337;52.070;4.508;2023-11-19T10:33:50;100885.19;;;12.88;100.00
49030;BME280;43337;52.070;4.508;2023-11-19T10:36:19;100892.06;;;12.90;100.00
49030;BME280;43337;52.070;4.508;2023-11-19T10:38:56;100911.19;;;13.13;100.00
49030;BME280;43337;52.070;4.508;2023-11-19T10:41:31;100918.88;;;13.17;100.00
49030;BME280;43337;52.070;4.508;2023-11-19T10:43:59;100902.50;;;13.11;100.00
49030;BME280;43337;52.070;4.508;2023-11-19T10:46:36;100894.22;;;13.17;100.00
49030;BME280;43337;52.070;4.508;2023-11-19T10:49:07;100870.22;;;13.04;100.00
49030;BME280;43337;52.070;4.508;2023-11-19T10:51:33;100911.25;;;13.29;100.00
49030;BME280;43337;52.070;4.508;2023-11-19T10:54:03;100911.97;;;13.32;100.00
49030;BME280;43337;52.070;4.508;2023-11-19T10:56:33;100916.00;;;13.39;100.00
49030;BME280;43337;52.070;4.508;2023-11-19T10:59:01;100878.78;;;13.27;100.00
49030;BME280;43337;52.070;4.508;2023-11-19T11:01:45;100912.84;;;13.49;100.00
49030;BME280;43337;52.070;4.508;2023-11-19T11:04:14;100926.75;;;13.52;100.00
49030;BME280;43337;52.070;4.508;2023-11-19T11:06:43;100917.66;;;13.58;100.00
49030;BME280;43337;52.070;4.508;2023-11-19T11:09:09;100916.47;;;13.63;100.00
49030;BME280;43337;52.070;4.508;2023-11-19T11:11:40;100903.09;;;13.66;100.00
49030;BME280;43337;52.070;4.508;2023-11-19T11:14:07;100898.38;;;13.72;100.00
49030;BME280;43337;52.070;4.508;2023-11-19T11:16:33;100915.63;;;13.79;100.00
49030;BME280;43337;52.070;4.508;2023-11-19T11:19:01;100872.75;;;13.56;100.00
49030;BME280;43337;52.070;4.508;2023-11-19T11:21:27;100872.28;;;13.65;100.00
49030;BME280;43337;52.070;4.508;2023-11-19T11:30:05;100911.97;;;13.97;100.00
49030;BME280;43337;52.070;4.508;2023-11-19T11:32:54;100835.13;;;13.67;100.00
49030;BME280;43337;52.070;4.508;2023-11-19T11:38:27;100867.84;;;13.98;100.00
49030;BME280;43337;52.070;4.508;2023-11-19T11:41:22;100891.41;;;14.02;100.00
49030;BME280;43337;52.070;4.508;2023-11-19T11:43:49;100887.81;;;14.03;100.00
49030;BME280;43337;52.070;4.508;2023-11-19T11:49:03;100881.84;;;14.00;100.00
49030;BME280;43337;52.070;4.508;2023-11-19T11:59:48;100860.69;;;13.84;100.00
49030;BME280;43337;52.070;4.508;2023-11-19T12:02:18;100870.38;;;13.83;100.00
49030;BME280;43337;52.070;4.508;2023-11-19T12:04:51;100881.91;;;13.98;100.00
49030;BME280;43337;52.070;4.508;2023-11-19T12:07:30;100817.41;;;13.69;100.00
49030;BME280;43337;52.070;4.508;2023-11-19T12:10:06;100894.88;;;14.03;100.00
49030;BME280;43337;52.070;4.508;2023-11-19T12:12:53;100888.16;;;13.97;100.00
49030;BME280;43337;52.070;4.508;2023-11-19T12:15:18;100859.31;;;13.77;100.00
49030;BME280;43337;52.070;4.508;2023-11-19T12:17:51;100872.19;;;13.83;100.00
49030;BME280;43337;52.070;4.508;2023-11-19T12:20:17;100838.78;;;13.49;100.00
49030;BME280;43337;52.070;4.508;2023-11-19T12:22:48;100843.66;;;13.56;100.00
49030;BME280;43337;52.070;4.508;2023-11-19T12:25:18;100825.91;;;13.42;100.00
49030;BME280;43337;52.070;4.508;2023-11-19T12:27:52;100855.97;;;13.57;100.00
49030;BME280;43337;52.070;4.508;2023-11-19T12:30:27;100847.22;;;13.39;100.00
49030;BME280;43337;52.070;4.508;2023-11-19T12:32:54;100861.75;;;13.48;100.00
49030;BME280;43337;52.070;4.508;2023-11-19T12:35:20;100831.34;;;13.24;100.00
49030;BME280;43337;52.070;4.508;2023-11-19T12:37:52;100855.31;;;13.36;100.00
49030;BME280;43337;52.070;4.508;2023-11-19T12:40:22;100877.28;;;13.54;100.00
49030;BME280;43337;52.070;4.508;2023-11-19T12:42:49;100884.78;;;13.46;100.00
49030;BME280;43337;52.070;4.508;2023-11-19T12:45:38;100851.06;;;13.16;100.00
49030;BME280;43337;52.070;4.508;2023-11-19T12:48:22;100881.06;;;13.33;100.00
49030;BME280;43337;52.070;4.508;2023-11-19T12:50:54;100900.53;;;13.32;100.00
49030;BME280;43337;52.070;4.508;2023-11-19T12:53:24;100879.47;;;13.30;100.00
49030;BME280;43337;52.070;4.508;2023-11-19T12:55:51;100867.34;;;13.26;100.00
49030;BME280;43337;52.070;4.508;2023-11-19T12:58:34;100855.75;;;13.29;100.00
49030;BME280;43337;52.070;4.508;2023-11-19T13:01:04;100866.69;;;13.38;100.00
49030;BME280;43337;52.070;4.508;2023-11-19T13:03:31;100843.38;;;13.29;100.00
49030;BME280;43337;52.070;4.508;2023-11-19T13:06:10;100867.44;;;13.40;100.00
49030;BME280;43337;52.070;4.508;2023-11-19T13:08:47;100839.97;;;13.10;100.00